sensor_id;sensor_type;location;lat;lon;timestamp;pressure;altitude;pressure_sealevel;temperature;humidity
29879;BME280;16752;53.364;-1.488;2023-12-20T00:00:33;100486.91;;;14.81;42.98
29879;BME280;16752;53.364;-1.488;2023-12-20T00:03:17;100501.75;;;14.82;42.37
29879;BME280;16752;53.364;-1.488;2023-12-20T00:06:01;100516.50;;;13.62;45.11
29879;BME280;16752;53.364;-1.488;2023-12-20T00:08:45;100470.34;;;14.14;44.39
29879;BME280;16752;53.364;-1.488;2023-12-20T00:11:29;100479.25;;;14.67;43.66
29879;BME280;16752;53.364;-1.488;2023-12-20T00:14:13;100467.97;;;14.76;43.39
29879;BME280;16752;53.364;-1.488;2023-12-20T00:16:57;100482.06;;;13.98;44.77
29879;BME280;16752;53.364;-1.488;2023-12-20T00:19:41;100483.19;;;14.73;43.39
29879;BME280;16752;53.364;-1.488;2023-12-20T00:22:25;100468.50;;;14.91;42.94
29879;BME280;16752;53.364;-1.488;2023-12-20T00:25:09;100496.66;;;14.36;43.88
29879;BME280;16752;53.364;-1.488;2023-12-20T00:27:53;100488.03;;;14.56;43.04
29879;BME280;16752;53.364;-1.488;2023-12-20T00:30:37;100481.50;;;14.72;42.73
29879;BME280;16752;53.364;-1.488;2023-12-20T00:33:20;100494.91;;;15.44;41.62
29879;BME280;16752;53.364;-1.488;2023-12-20T00:36:05;100483.50;;;14.47;43.27
29879;BME280;16752;53.364;-1.488;2023-12-20T00:38:49;100480.44;;;15.06;41.89
29879;BME280;16752;53.364;-1.488;2023-12-20T00:41:33;100484.25;;;15.13;41.63
29879;BME280;16752;53.364;-1.488;2023-12-20T00:44:17;100466.03;;;15.10;42.62
29879;BME280;16752;53.364;-1.488;2023-12-20T00:47:01;100493.69;;;15.16;42.77
29879;BME280;16752;53.364;-1.488;2023-12-20T00:49:45;100492.66;;;15.07;43.21
29879;BME280;16752;53.364;-1.488;2023-12-20T00:52:29;100511.06;;;14.43;44.49
29879;BME280;16752;53.364;-1.488;2023-12-20T00:55:13;100490.69;;;14.56;43.46
29879;BME280;16752;53.364;-1.488;2023-12-20T00:57:57;100508.13;;;14.68;42.83
29879;BME280;16752;53.364;-1.488;2023-12-20T01:00:43;100494.19;;;15.21;42.23
29879;BME280;16752;53.364;-1.488;2023-12-20T01:03:27;100496.69;;;15.22;41.58
29879;BME280;16752;53.364;-1.488;2023-12-20T01:06:11;100496.38;;;15.78;40.59
29879;BME280;16752;53.364;-1.488;2023-12-20T01:08:55;100479.09;;;15.33;41.29
29879;BME280;16752;53.364;-1.488;2023-12-20T01:11:39;100500.09;;;15.66;41.41
29879;BME280;16752;53.364;-1.488;2023-12-20T01:14:23;100489.03;;;14.87;42.98
29879;BME280;16752;53.364;-1.488;2023-12-20T01:17:07;100484.25;;;15.13;42.17
29879;BME280;16752;53.364;-1.488;2023-12-20T01:19:50;100481.75;;;15.53;41.90
29879;BME280;16752;53.364;-1.488;2023-12-20T01:22:34;100470.78;;;14.41;44.16
29879;BME280;16752;53.364;-1.488;2023-12-20T01:25:19;100458.50;;;15.26;42.05
29879;BME280;16752;53.364;-1.488;2023-12-20T01:28:03;100474.09;;;15.71;41.55
29879;BME280;16752;53.364;-1.488;2023-12-20T01:30:47;100477.44;;;15.73;41.09
29879;BME280;16752;53.364;-1.488;2023-12-20T01:33:31;100468.97;;;15.70;41.73
29879;BME280;16752;53.364;-1.488;2023-12-20T01:36:15;100468.03;;;15.39;42.95
29879;BME280;16752;53.364;-1.488;2023-12-20T01:38:59;100463.53;;;14.77;43.71
29879;BME280;16752;53.364;-1.488;2023-12-20T01:41:43;100469.53;;;15.73;42.17
29879;BME280;16752;53.364;-1.488;2023-12-20T01:44:27;100456.50;;;14.98;43.30
29879;BME280;16752;53.364;-1.488;2023-12-20T01:47:12;100434.75;;;14.74;43.81
29879;BME280;16752;53.364;-1.488;2023-12-20T01:49:56;100450.56;;;14.85;42.41
29879;BME280;16752;53.364;-1.488;2023-12-20T01:52:41;100447.47;;;14.80;42.88
29879;BME280;16752;53.364;-1.488;2023-12-20T01:55:27;100431.81;;;14.99;42.54
29879;BME280;16752;53.364;-1.488;2023-12-20T01:58:13;100438.53;;;15.13;42.80
29879;BME280;16752;53.364;-1.488;2023-12-20T02:00:58;100415.97;;;15.41;42.45
29879;BME280;16752;53.364;-1.488;2023-12-20T02:03:42;100448.59;;;15.40;42.00
29879;BME280;16752;53.364;-1.488;2023-12-20T02:06:29;100449.56;;;14.97;44.02
29879;BME280;16752;53.364;-1.488;2023-12-20T02:09:15;100442.72;;;14.94;44.14
29879;BME280;16752;53.364;-1.488;2023-12-20T02:11:59;100417.94;;;15.69;42.34
29879;BME280;16752;53.364;-1.488;2023-12-20T02:14:43;100419.38;;;15.11;43.35
29879;BME280;16752;53.364;-1.488;2023-12-20T02:17:27;100421.50;;;15.89;42.13
29879;BME280;16752;53.364;-1.488;2023-12-20T02:20:13;100396.56;;;15.82;42.61
29879;BME280;16752;53.364;-1.488;2023-12-20T02:22:57;100421.72;;;15.55;43.59
29879;BME280;16752;53.364;-1.488;2023-12-20T02:25:41;100427.66;;;15.48;43.95
29879;BME280;16752;53.364;-1.488;2023-12-20T02:28:25;100399.81;;;15.95;42.68
29879;BME280;16752;53.364;-1.488;2023-12-20T02:31:09;100424.72;;;15.20;44.51
29879;BME280;16752;53.364;-1.488;2023-12-20T02:33:53;100428.91;;;15.23;44.50
29879;BME280;16752;53.364;-1.488;2023-12-20T02:36:37;100427.50;;;15.19;43.72
29879;BME280;16752;53.364;-1.488;2023-12-20T02:39:21;100426.41;;;15.01;44.90
29879;BME280;16752;53.364;-1.488;2023-12-20T02:42:06;100421.13;;;15.63;43.89
29879;BME280;16752;53.364;-1.488;2023-12-20T02:44:50;100416.41;;;16.07;43.02
29879;BME280;16752;53.364;-1.488;2023-12-20T02:47:34;100434.81;;;15.36;44.22
29879;BME280;16752;53.364;-1.488;2023-12-20T02:50:18;100420.53;;;14.65;45.68
29879;BME280;16752;53.364;-1.488;2023-12-20T02:53:02;100425.34;;;14.92;45.50
29879;BME280;16752;53.364;-1.488;2023-12-20T02:55:45;100418.97;;;14.19;47.91
29879;BME280;16752;53.364;-1.488;2023-12-20T02:58:30;100422.44;;;15.37;45.41
29879;BME280;16752;53.364;-1.488;2023-12-20T03:01:14;100430.41;;;14.84;46.85
29879;BME280;16752;53.364;-1.488;2023-12-20T03:03:58;100420.88;;;14.72;46.16
29879;BME280;16752;53.364;-1.488;2023-12-20T03:06:42;100391.97;;;15.74;44.43
29879;BME280;16752;53.364;-1.488;2023-12-20T03:09:26;100403.34;;;15.23;46.11
29879;BME280;16752;53.364;-1.488;2023-12-20T03:12:10;100408.66;;;15.75;45.61
29879;BME280;16752;53.364;-1.488;2023-12-20T03:14:53;100421.56;;;15.26;47.14
29879;BME280;16752;53.364;-1.488;2023-12-20T03:17:37;100380.31;;;15.05;47.02
29879;BME280;16752;53.364;-1.488;2023-12-20T03:20:21;100397.25;;;15.74;45.31
29879;BME280;16752;53.364;-1.488;2023-12-20T03:23:05;100400.03;;;15.73;45.48
29879;BME280;16752;53.364;-1.488;2023-12-20T03:25:49;100394.88;;;14.99;46.89
29879;BME280;16752;53.364;-1.488;2023-12-20T03:28:33;100390.97;;;14.61;48.16
29879;BME280;16752;53.364;-1.488;2023-12-20T03:31:17;100415.06;;;15.10;48.30
29879;BME280;16752;53.364;-1.488;2023-12-20T03:34:01;100396.66;;;15.19;48.20
29879;BME280;16752;53.364;-1.488;2023-12-20T03:36:45;100383.53;;;14.87;48.94
29879;BME280;16752;53.364;-1.488;2023-12-20T03:39:31;100413.25;;;15.10;48.78
29879;BME280;16752;53.364;-1.488;2023-12-20T03:42:15;100410.03;;;14.86;48.79
29879;BME280;16752;53.364;-1.488;2023-12-20T03:44:59;100422.88;;;14.36;49.35
29879;BME280;16752;53.364;-1.488;2023-12-20T03:47:43;100420.13;;;14.81;49.07
29879;BME280;16752;53.364;-1.488;2023-12-20T03:50:27;100413.44;;;15.60;46.59
29879;BME280;16752;53.364;-1.488;2023-12-20T03:53:11;100385.41;;;14.96;47.79
29879;BME280;16752;53.364;-1.488;2023-12-20T03:55:55;100399.75;;;15.24;47.39
29879;BME280;16752;53.364;-1.488;2023-12-20T03:58:39;100398.50;;;14.87;47.30
29879;BME280;16752;53.364;-1.488;2023-12-20T04:01:23;100383.59;;;14.97;46.61
29879;BME280;16752;53.364;-1.488;2023-12-20T04:04:06;100405.13;;;15.44;47.33
29879;BME280;16752;53.364;-1.488;2023-12-20T04:06:51;100388.84;;;15.39;47.06
29879;BME280;16752;53.364;-1.488;2023-12-20T04:09:34;100397.72;;;15.38;48.07
29879;BME280;16752;53.364;-1.488;2023-12-20T04:12:18;100385.88;;;15.32;48.07
29879;BME280;16752;53.364;-1.488;2023-12-20T04:15:02;100401.94;;;15.40;47.65
29879;BME280;16752;53.364;-1.488;2023-12-20T04:17:52;100395.00;;;15.18;48.26
29879;BME280;16752;53.364;-1.488;2023-12-20T04:20:36;100382.44;;;15.11;48.47
29879;BME280;16752;53.364;-1.488;2023-12-20T04:23:20;100360.16;;;15.55;46.97
29879;BME280;16752;53.364;-1.488;2023-12-20T04:26:04;100348.38;;;15.28;47.28
29879;BME280;16752;53.364;-1.488;2023-12-20T04:28:48;100352.41;;;15.02;48.10
29879;BME280;16752;53.364;-1.488;2023-12-20T04:31:32;100344.91;;;15.58;46.67
29879;BME280;16752;53.364;-1.488;2023-12-20T04:34:16;100315.50;;;15.12;47.33
29879;BME280;16752;53.364;-1.488;2023-12-20T04:37:00;100357.47;;;15.66;46.38
29879;BME280;16752;53.364;-1.488;2023-12-20T04:39:45;100370.75;;;15.85;45.68
29879;BME280;16752;53.364;-1.488;2023-12-20T04:42:29;100365.97;;;15.70;46.85
29879;BME280;16752;53.364;-1.488;2023-12-20T04:45:13;100353.28;;;14.71;48.98
29879;BME280;16752;53.364;-1.488;2023-12-20T04:47:59;100348.78;;;15.03;48.25
29879;BME280;16752;53.364;-1.488;2023-12-20T04:50:44;100379.63;;;15.03;48.99
29879;BME280;16752;53.364;-1.488;2023-12-20T04:53:28;100359.22;;;15.05;48.52
29879;BME280;16752;53.364;-1.488;2023-12-20T04:56:12;100390.63;;;15.59;47.68
29879;BME280;16752;53.364;-1.488;2023-12-20T04:58:56;100375.56;;;15.80;47.22
29879;BME280;16752;53.364;-1.488;2023-12-20T05:01:40;100380.91;;;15.39;48.44
29879;BME280;16752;53.364;-1.488;2023-12-20T05:04:24;100379.09;;;15.09;49.24
29879;BME280;16752;53.364;-1.488;2023-12-20T05:07:08;100381.28;;;15.24;49.34
29879;BME280;16752;53.364;-1.488;2023-12-20T05:09:52;100384.28;;;14.57;51.06
29879;BME280;16752;53.364;-1.488;2023-12-20T05:12:37;100372.97;;;15.08;50.53
29879;BME280;16752;53.364;-1.488;2023-12-20T05:15:21;100377.94;;;15.53;49.14
29879;BME280;16752;53.364;-1.488;2023-12-20T05:18:05;100393.91;;;15.21;49.94
29879;BME280;16752;53.364;-1.488;2023-12-20T05:20:50;100386.28;;;15.07;50.87
29879;BME280;16752;53.364;-1.488;2023-12-20T05:23:35;100386.13;;;15.19;50.50
29879;BME280;16752;53.364;-1.488;2023-12-20T05:26:19;100393.38;;;15.06;50.54
29879;BME280;16752;53.364;-1.488;2023-12-20T05:29:03;100360.47;;;14.68;50.16
29879;BME280;16752;53.364;-1.488;2023-12-20T05:31:47;100378.81;;;15.33;49.45
29879;BME280;16752;53.364;-1.488;2023-12-20T05:34:31;100383.47;;;15.19;49.32
29879;BME280;16752;53.364;-1.488;2023-12-20T05:37:15;100379.50;;;14.29;50.63
29879;BME280;16752;53.364;-1.488;2023-12-20T05:39:59;100360.63;;;14.88;49.07
29879;BME280;16752;53.364;-1.488;2023-12-20T05:42:43;100348.97;;;14.90;48.77
29879;BME280;16752;53.364;-1.488;2023-12-20T05:45:27;100344.66;;;15.10;48.23
29879;BME280;16752;53.364;-1.488;2023-12-20T05:48:11;100335.59;;;14.61;49.46
29879;BME280;16752;53.364;-1.488;2023-12-20T05:50:55;100311.34;;;14.67;48.97
29879;BME280;16752;53.364;-1.488;2023-12-20T05:53:39;100374.72;;;15.19;47.98
29879;BME280;16752;53.364;-1.488;2023-12-20T05:56:23;100343.38;;;14.63;49.55
29879;BME280;16752;53.364;-1.488;2023-12-20T05:59:07;100371.34;;;15.17;48.70
29879;BME280;16752;53.364;-1.488;2023-12-20T06:01:51;100347.44;;;15.09;48.54
29879;BME280;16752;53.364;-1.488;2023-12-20T06:04:35;100355.59;;;15.06;48.92
29879;BME280;16752;53.364;-1.488;2023-12-20T06:07:19;100326.19;;;14.68;49.99
29879;BME280;16752;53.364;-1.488;2023-12-20T06:10:03;100315.19;;;15.05;47.81
29879;BME280;16752;53.364;-1.488;2023-12-20T06:12:47;100343.25;;;15.37;48.37
29879;BME280;16752;53.364;-1.488;2023-12-20T06:15:34;100337.22;;;15.46;48.18
29879;BME280;16752;53.364;-1.488;2023-12-20T06:18:17;100336.56;;;15.02;48.90
29879;BME280;16752;53.364;-1.488;2023-12-20T06:21:02;100326.88;;;15.12;47.93
29879;BME280;16752;53.364;-1.488;2023-12-20T06:23:46;100347.13;;;15.02;48.46
29879;BME280;16752;53.364;-1.488;2023-12-20T06:26:30;100333.22;;;14.58;48.49
29879;BME280;16752;53.364;-1.488;2023-12-20T06:29:14;100367.03;;;15.16;46.88
29879;BME280;16752;53.364;-1.488;2023-12-20T06:31:58;100360.50;;;15.62;46.29
29879;BME280;16752;53.364;-1.488;2023-12-20T06:34:42;100367.47;;;15.63;45.55
29879;BME280;16752;53.364;-1.488;2023-12-20T06:37:26;100369.75;;;15.25;46.84
29879;BME280;16752;53.364;-1.488;2023-12-20T06:40:10;100330.56;;;15.21;45.79
29879;BME280;16752;53.364;-1.488;2023-12-20T06:42:55;100358.81;;;15.61;45.69
29879;BME280;16752;53.364;-1.488;2023-12-20T06:45:39;100373.13;;;15.88;45.36
29879;BME280;16752;53.364;-1.488;2023-12-20T06:48:23;100337.88;;;15.69;45.59
29879;BME280;16752;53.364;-1.488;2023-12-20T06:51:10;100369.50;;;15.28;46.58
29879;BME280;16752;53.364;-1.488;2023-12-20T06:53:55;100374.41;;;15.64;46.79
29879;BME280;16752;53.364;-1.488;2023-12-20T06:56:38;100360.19;;;15.85;45.81
29879;BME280;16752;53.364;-1.488;2023-12-20T06:59:23;100372.38;;;15.77;45.83
29879;BME280;16752;53.364;-1.488;2023-12-20T07:02:07;100357.09;;;15.80;45.77
29879;BME280;16752;53.364;-1.488;2023-12-20T07:04:51;100380.06;;;15.08;47.31
29879;BME280;16752;53.364;-1.488;2023-12-20T07:07:35;100385.34;;;15.89;46.82
29879;BME280;16752;53.364;-1.488;2023-12-20T07:10:19;100362.28;;;15.31;47.61
29879;BME280;16752;53.364;-1.488;2023-12-20T07:13:03;100402.03;;;15.39;47.36
29879;BME280;16752;53.364;-1.488;2023-12-20T07:15:47;100378.75;;;15.44;47.99
29879;BME280;16752;53.364;-1.488;2023-12-20T07:18:31;100365.47;;;15.85;46.84
29879;BME280;16752;53.364;-1.488;2023-12-20T07:21:15;100365.91;;;16.00;46.25
29879;BME280;16752;53.364;-1.488;2023-12-20T07:23:59;100379.28;;;15.68;47.24
29879;BME280;16752;53.364;-1.488;2023-12-20T07:26:43;100371.97;;;15.81;47.64
29879;BME280;16752;53.364;-1.488;2023-12-20T07:29:27;100387.03;;;15.39;48.21
29879;BME280;16752;53.364;-1.488;2023-12-20T07:32:11;100370.28;;;15.50;47.55
29879;BME280;16752;53.364;-1.488;2023-12-20T07:34:55;100381.63;;;16.02;46.97
29879;BME280;16752;53.364;-1.488;2023-12-20T07:37:39;100363.38;;;15.99;46.40
29879;BME280;16752;53.364;-1.488;2023-12-20T07:40:23;100381.44;;;15.84;47.17
29879;BME280;16752;53.364;-1.488;2023-12-20T07:43:07;100394.19;;;15.79;46.54
29879;BME280;16752;53.364;-1.488;2023-12-20T07:45:51;100391.63;;;15.16;47.56
29879;BME280;16752;53.364;-1.488;2023-12-20T07:48:35;100366.66;;;15.20;47.24
29879;BME280;16752;53.364;-1.488;2023-12-20T07:51:20;100411.28;;;14.71;48.45
29879;BME280;16752;53.364;-1.488;2023-12-20T07:54:05;100405.91;;;15.35;46.83
29879;BME280;16752;53.364;-1.488;2023-12-20T07:56:49;100412.63;;;14.97;46.94
29879;BME280;16752;53.364;-1.488;2023-12-20T07:59:33;100378.38;;;15.58;46.46
29879;BME280;16752;53.364;-1.488;2023-12-20T08:02:17;100375.50;;;15.61;46.00
29879;BME280;16752;53.364;-1.488;2023-12-20T08:05:01;100392.63;;;16.07;44.80
29879;BME280;16752;53.364;-1.488;2023-12-20T08:07:45;100405.31;;;15.73;45.12
29879;BME280;16752;53.364;-1.488;2023-12-20T08:10:28;100401.56;;;16.25;45.20
29879;BME280;16752;53.364;-1.488;2023-12-20T08:13:13;100403.00;;;15.38;46.64
29879;BME280;16752;53.364;-1.488;2023-12-20T08:15:57;100406.09;;;15.64;46.01
29879;BME280;16752;53.364;-1.488;2023-12-20T08:18:42;100372.84;;;15.10;46.83
29879;BME280;16752;53.364;-1.488;2023-12-20T08:21:26;100382.34;;;15.43;46.47
29879;BME280;16752;53.364;-1.488;2023-12-20T08:24:09;100400.88;;;15.52;46.57
29879;BME280;16752;53.364;-1.488;2023-12-20T08:26:53;100392.38;;;15.70;46.03
29879;BME280;16752;53.364;-1.488;2023-12-20T08:29:37;100422.50;;;15.98;46.19
29879;BME280;16752;53.364;-1.488;2023-12-20T08:32:21;100445.03;;;16.52;45.05
29879;BME280;16752;53.364;-1.488;2023-12-20T08:35:05;100407.41;;;15.27;47.52
29879;BME280;16752;53.364;-1.488;2023-12-20T08:37:50;100378.63;;;15.76;46.45
29879;BME280;16752;53.364;-1.488;2023-12-20T08:40:34;100385.94;;;16.03;45.88
29879;BME280;16752;53.364;-1.488;2023-12-20T08:43:18;100412.53;;;15.71;47.05
29879;BME280;16752;53.364;-1.488;2023-12-20T08:46:02;100395.88;;;15.08;47.80
29879;BME280;16752;53.364;-1.488;2023-12-20T08:48:47;100383.47;;;14.78;48.84
29879;BME280;16752;53.364;-1.488;2023-12-20T08:51:31;100403.22;;;15.76;47.19
29879;BME280;16752;53.364;-1.488;2023-12-20T08:54:14;100410.44;;;16.14;46.61
29879;BME280;16752;53.364;-1.488;2023-12-20T08:57:00;100399.31;;;15.71;47.68
29879;BME280;16752;53.364;-1.488;2023-12-20T08:59:44;100392.94;;;16.23;46.72
29879;BME280;16752;53.364;-1.488;2023-12-20T09:02:28;100416.22;;;15.89;47.28
29879;BME280;16752;53.364;-1.488;2023-12-20T09:05:12;100413.38;;;15.29;48.96
29879;BME280;16752;53.364;-1.488;2023-12-20T09:07:57;100417.47;;;15.85;47.62
29879;BME280;16752;53.364;-1.488;2023-12-20T09:10:41;100406.69;;;16.17;46.50
29879;BME280;16752;53.364;-1.488;2023-12-20T09:13:25;100405.91;;;15.35;48.36
29879;BME280;16752;53.364;-1.488;2023-12-20T09:16:12;100408.78;;;16.23;46.29
29879;BME280;16752;53.364;-1.488;2023-12-20T09:18:57;100411.38;;;15.94;46.68
29879;BME280;16752;53.364;-1.488;2023-12-20T09:21:41;100398.22;;;16.23;46.77
29879;BME280;16752;53.364;-1.488;2023-12-20T09:24:25;100397.19;;;16.05;46.61
29879;BME280;16752;53.364;-1.488;2023-12-20T09:27:09;100375.81;;;16.08;46.47
29879;BME280;16752;53.364;-1.488;2023-12-20T09:29:53;100393.09;;;15.81;47.37
29879;BME280;16752;53.364;-1.488;2023-12-20T09:32:37;100384.31;;;16.21;46.47
29879;BME280;16752;53.364;-1.488;2023-12-20T09:35:22;100379.81;;;16.02;47.30
29879;BME280;16752;53.364;-1.488;2023-12-20T09:38:06;100394.81;;;16.02;48.77
29879;BME280;16752;53.364;-1.488;2023-12-20T09:40:50;100371.06;;;15.62;49.56
29879;BME280;16752;53.364;-1.488;2023-12-20T09:43:37;100388.53;;;16.53;47.77
29879;BME280;16752;53.364;-1.488;2023-12-20T09:46:24;100380.06;;;16.88;46.70
29879;BME280;16752;53.364;-1.488;2023-12-20T09:49:11;100374.69;;;16.20;48.24
29879;BME280;16752;53.364;-1.488;2023-12-20T09:51:56;100378.97;;;16.71;47.66
29879;BME280;16752;53.364;-1.488;2023-12-20T09:54:40;100353.75;;;16.67;47.63
29879;BME280;16752;53.364;-1.488;2023-12-20T09:57:25;100363.72;;;16.25;48.53
29879;BME280;16752;53.364;-1.488;2023-12-20T10:00:10;100369.78;;;15.86;50.03
29879;BME280;16752;53.364;-1.488;2023-12-20T10:02:58;100366.00;;;16.87;47.82
29879;BME280;16752;53.364;-1.488;2023-12-20T10:05:44;100347.84;;;16.15;49.48
29879;BME280;16752;53.364;-1.488;2023-12-20T10:08:28;100376.72;;;16.66;48.96
29879;BME280;16752;53.364;-1.488;2023-12-20T10:11:14;100371.69;;;16.63;48.95
29879;BME280;16752;53.364;-1.488;2023-12-20T10:14:01;100368.56;;;16.10;50.42
29879;BME280;16752;53.364;-1.488;2023-12-20T10:16:45;100374.63;;;16.70;49.32
29879;BME280;16752;53.364;-1.488;2023-12-20T10:19:29;100363.16;;;16.21;50.50
29879;BME280;16752;53.364;-1.488;2023-12-20T10:22:13;100358.91;;;16.78;48.57
29879;BME280;16752;53.364;-1.488;2023-12-20T10:24:57;100316.97;;;15.25;51.55
29879;BME280;16752;53.364;-1.488;2023-12-20T10:27:41;100343.41;;;16.25;50.20
29879;BME280;16752;53.364;-1.488;2023-12-20T10:30:27;100316.94;;;15.86;50.68
29879;BME280;16752;53.364;-1.488;2023-12-20T10:33:11;100316.97;;;16.15;50.53
29879;BME280;16752;53.364;-1.488;2023-12-20T10:35:55;100339.22;;;16.23;50.81
29879;BME280;16752;53.364;-1.488;2023-12-20T10:38:42;100328.09;;;16.96;48.59
29879;BME280;16752;53.364;-1.488;2023-12-20T10:41:29;100322.81;;;16.87;48.66
29879;BME280;16752;53.364;-1.488;2023-12-20T10:44:13;100291.69;;;16.71;49.00
29879;BME280;16752;53.364;-1.488;2023-12-20T10:46:58;100300.72;;;15.61;52.26
29879;BME280;16752;53.364;-1.488;2023-12-20T10:49:43;100289.00;;;16.13;51.26
29879;BME280;16752;53.364;-1.488;2023-12-20T10:52:29;100274.97;;;16.22;50.91
29879;BME280;16752;53.364;-1.488;2023-12-20T10:55:13;100266.56;;;16.85;49.27
29879;BME280;16752;53.364;-1.488;2023-12-20T10:58:02;100280.53;;;16.77;49.43
29879;BME280;16752;53.364;-1.488;2023-12-20T11:00:51;100263.06;;;16.94;48.70
29879;BME280;16752;53.364;-1.488;2023-12-20T11:03:44;100276.19;;;16.76;49.15
29879;BME280;16752;53.364;-1.488;2023-12-20T11:09:29;100233.47;;;16.71;49.31
29879;BME280;16752;53.364;-1.488;2023-12-20T11:12:18;100246.22;;;16.85;49.00
29879;BME280;16752;53.364;-1.488;2023-12-20T11:15:06;100238.78;;;15.74;51.49
29879;BME280;16752;53.364;-1.488;2023-12-20T11:17:57;100206.53;;;16.19;50.84
29879;BME280;16752;53.364;-1.488;2023-12-20T11:20:42;100195.88;;;16.58;49.22
29879;BME280;16752;53.364;-1.488;2023-12-20T11:23:26;100211.31;;;15.56;52.01
29879;BME280;16752;53.364;-1.488;2023-12-20T11:26:10;100194.94;;;16.49;50.24
29879;BME280;16752;53.364;-1.488;2023-12-20T11:28:54;100175.63;;;17.13;48.68
29879;BME280;16752;53.364;-1.488;2023-12-20T11:31:41;100169.19;;;16.51;50.07
29879;BME280;16752;53.364;-1.488;2023-12-20T11:34:27;100167.84;;;16.84;49.18
29879;BME280;16752;53.364;-1.488;2023-12-20T11:37:13;100148.00;;;15.95;50.72
29879;BME280;16752;53.364;-1.488;2023-12-20T11:40:06;100179.13;;;16.01;51.66
29879;BME280;16752;53.364;-1.488;2023-12-20T11:42:51;100160.91;;;15.78;52.18
29879;BME280;16752;53.364;-1.488;2023-12-20T11:45:36;100150.28;;;16.36;50.35
29879;BME280;16752;53.364;-1.488;2023-12-20T11:48:21;100152.56;;;16.02;50.91
29879;BME280;16752;53.364;-1.488;2023-12-20T11:51:12;100115.34;;;16.42;50.03
29879;BME280;16752;53.364;-1.488;2023-12-20T11:53:56;100145.50;;;16.59;49.88
29879;BME280;16752;53.364;-1.488;2023-12-20T11:56:40;100096.94;;;16.04;50.65
29879;BME280;16752;53.364;-1.488;2023-12-20T11:59:26;100105.94;;;17.22;48.17
29879;BME280;16752;53.364;-1.488;2023-12-20T12:02:11;100093.97;;;16.26;49.44
29879;BME280;16752;53.364;-1.488;2023-12-20T12:04:55;100087.03;;;17.17;47.65
29879;BME280;16752;53.364;-1.488;2023-12-20T12:07:40;100093.59;;;17.31;47.86
29879;BME280;16752;53.364;-1.488;2023-12-20T12:10:24;100042.19;;;16.61;48.89
29879;BME280;16752;53.364;-1.488;2023-12-20T12:13:08;100083.84;;;16.86;48.49
29879;BME280;16752;53.364;-1.488;2023-12-20T12:15:53;100045.06;;;16.77;48.38
29879;BME280;16752;53.364;-1.488;2023-12-20T12:18:38;100041.72;;;17.02;47.99
29879;BME280;16752;53.364;-1.488;2023-12-20T12:21:21;100087.47;;;16.58;49.32
29879;BME280;16752;53.364;-1.488;2023-12-20T12:24:07;100075.19;;;16.94;48.50
29879;BME280;16752;53.364;-1.488;2023-12-20T12:26:51;100059.44;;;17.37;46.29
29879;BME280;16752;53.364;-1.488;2023-12-20T12:29:36;100046.25;;;17.10;47.89
29879;BME280;16752;53.364;-1.488;2023-12-20T12:32:20;100061.25;;;16.74;48.64
29879;BME280;16752;53.364;-1.488;2023-12-20T12:35:05;100072.41;;;17.31;47.87
29879;BME280;16752;53.364;-1.488;2023-12-20T12:37:51;100065.84;;;17.35;48.06
29879;BME280;16752;53.364;-1.488;2023-12-20T12:40:35;100062.38;;;17.17;47.71
29879;BME280;16752;53.364;-1.488;2023-12-20T12:43:19;100046.91;;;17.83;46.26
29879;BME280;16752;53.364;-1.488;2023-12-20T12:46:04;100041.84;;;17.54;47.60
29879;BME280;16752;53.364;-1.488;2023-12-20T12:48:48;100045.63;;;17.34;47.10
29879;BME280;16752;53.364;-1.488;2023-12-20T12:51:33;100030.78;;;18.28;45.12
29879;BME280;16752;53.364;-1.488;2023-12-20T12:54:17;99995.81;;;16.94;47.83
29879;BME280;16752;53.364;-1.488;2023-12-20T12:57:02;100018.41;;;17.41;47.26
29879;BME280;16752;53.364;-1.488;2023-12-20T12:59:46;100001.69;;;17.85;46.28
29879;BME280;16752;53.364;-1.488;2023-12-20T13:02:30;99972.88;;;16.67;48.29
29879;BME280;16752;53.364;-1.488;2023-12-20T13:05:14;99990.91;;;16.54;49.44
29879;BME280;16752;53.364;-1.488;2023-12-20T13:07:58;100000.19;;;17.03;48.69
29879;BME280;16752;53.364;-1.488;2023-12-20T13:10:42;100008.19;;;17.11;48.20
29879;BME280;16752;53.364;-1.488;2023-12-20T13:13:27;99974.78;;;17.28;48.09
29879;BME280;16752;53.364;-1.488;2023-12-20T13:16:11;99991.22;;;17.57;47.01
29879;BME280;16752;53.364;-1.488;2023-12-20T13:18:55;99968.69;;;16.92;48.33
29879;BME280;16752;53.364;-1.488;2023-12-20T13:21:40;99928.22;;;17.95;46.26
29879;BME280;16752;53.364;-1.488;2023-12-20T13:24:24;99965.81;;;17.98;46.32
29879;BME280;16752;53.364;-1.488;2023-12-20T13:27:08;99952.84;;;17.61;47.19
29879;BME280;16752;53.364;-1.488;2023-12-20T13:29:52;99942.38;;;17.34;47.88
29879;BME280;16752;53.364;-1.488;2023-12-20T13:32:36;99947.06;;;16.96;48.65
29879;BME280;16752;53.364;-1.488;2023-12-20T13:35:20;99970.63;;;17.07;48.88
29879;BME280;16752;53.364;-1.488;2023-12-20T13:38:04;99943.28;;;17.42;47.94
29879;BME280;16752;53.364;-1.488;2023-12-20T13:40:48;99941.88;;;17.13;49.28
29879;BME280;16752;53.364;-1.488;2023-12-20T13:43:32;99912.97;;;16.93;49.05
29879;BME280;16752;53.364;-1.488;2023-12-20T13:46:18;99912.06;;;17.28;47.90
29879;BME280;16752;53.364;-1.488;2023-12-20T13:49:02;99924.97;;;16.70;50.15
29879;BME280;16752;53.364;-1.488;2023-12-20T13:51:46;99921.13;;;17.69;47.52
29879;BME280;16752;53.364;-1.488;2023-12-20T13:54:31;99913.47;;;17.66;47.76
29879;BME280;16752;53.364;-1.488;2023-12-20T13:57:15;99892.81;;;17.70;47.89
29879;BME280;16752;53.364;-1.488;2023-12-20T13:59:59;99897.22;;;17.61;48.11
29879;BME280;16752;53.364;-1.488;2023-12-20T14:02:43;99872.97;;;17.48;47.76
29879;BME280;16752;53.364;-1.488;2023-12-20T14:05:27;99845.22;;;16.65;48.96
29879;BME280;16752;53.364;-1.488;2023-12-20T14:08:12;99888.59;;;16.90;49.49
29879;BME280;16752;53.364;-1.488;2023-12-20T14:10:56;99881.72;;;16.61;50.49